Dafter, MI (49724)

12:55 AM EDT on September 03, 2015 (GMT -0400)
MesoWest | | Change Station
CLOSE
Current Station
Personal Weather Station
Location: Dafter, MI
Elevation: 686 ft
Nearby Weather Stations

Elev 686 ft 46.37 °N, 84.43 °W | Updated 35 minutes ago

Rain
Rain
63 °F
Feels Like 63 °F
N
2
Wind Variable Wind from NW
Gusts 6.0 mph

Today
High -- | Low -- °F
--% Chance of Precip.
Yesterday
High -- | Low -- °F
Precip. -- in
7:00 AM 8:13 PM
Waning Gibbous, 74% visible
Pressure 29.98 in
Visibility 10.0 miles
Clouds Few 6000 ft
Scattered Clouds 7000 ft
Overcast 11000 ft
Dew Point 63 °F
Humidity 100%
Rainfall in
Snow Depth Not available.
UV 0 out of 12
Pollen 10.20 out of 12
Air Quality Not available.
Flu Activity Not available.
METAR KCIU 030435Z AUTO 35005KT 10SM FEW060 SCT070 OVC110 18/17 A2998 RMK AO1
Pressure 29.98 in
Visibility 10.0 miles
Clouds Few 6000 ft
Scattered Clouds 7000 ft
Overcast 11000 ft
Dew Point 63 °F
Humidity 100%
Rainfall in
Snow Depth Not available.
UV 0 out of 12
Pollen 10.20 out of 12
Air Quality Not available.
Flu Activity Not available.
METAR KCIU 030435Z AUTO 35005KT 10SM FEW060 SCT070 OVC110 18/17 A2998 RMK AO1
Nowcast | as of 12:00 am EDT on September 3, 2015

At 1 am...partly cloudy. Chance of thunderstorms and slight chance of showers. Locally heavy rainfall possible. Temperature 64. Light winds. At 3 am...mostly cloudy. Areas of fog. Chance of showers and thunderstorms. Locally heavy rainfall possible. Temperature 63. Light winds. At 5 am...mostly cloudy. Areas of fog. Chance of showers and thunderstorms. Locally heavy rainfall possible. Temperature 62. Light winds. At 7 am...mostly cloudy. Areas of fog. Chance of showers and thunderstorms. Locally heavy rainfall possible. Temperature 64. Light winds.

×

10-Day Weather Forecast

×

Almanac

Astronomy

Sep. 03, 2015 Rise Set
Actual Time
Civil Twilight
Nautical Twilight
Astronomical Twilight
Moon
Length of Visible Light
Length of Day
Tomorrow will be .
, % of the Moon is Illuminated

Today's Extremes

State Highs State Lows

Community

WunderPhotos

Upload Photos

1,851,913 photos uploaded!

WunderBlogs® & News

Nearby

Air Quality

  Air Quality AQ Index Pollutant
Not available.

Snow Depth

Station Depth Elevation

Earthquake Activity

City Distance Mag. Time & Date
Minimum magnitude displayed is 2.5.

Coastal Water Temperatures

Place Temperature

Stations

Nearby Weather Stations

Station Location Temp. Windchill Dew Point Humidity Wind Precip. Elev Updated Type